< Typhoon 198505 1985 Season Typhoon 198507 >
Typhoon 198506 (IRMA)
General InformationTrack Information on Google MapsDetailed Wind InformationList of All Images || Disaster Info.ResourceGoogle EarthGE AnimationAtom FeedGeoJSON
Detalied Best Track (Time Zone = UTC)
Year Month Day Hour Lat. Long. Pressure (hPa) Wind (kt) Class Image Chart
1985 6 24 06 8.0 138.0 1004 0 2 Image Chart
1985 6 24 12 8.7 136.4 1002 0 2 Image Chart
1985 6 24 18 9.4 135.0 1000 0 2 Image Chart
1985 6 25 00 9.7 134.0 998 0 2 Image Chart
1985 6 25 06 10.0 133.0 994 45 3 Image Chart
1985 6 25 12 10.3 132.2 990 55 4 Image Chart
1985 6 25 18 10.8 131.8 990 60 4 Image Chart
1985 6 26 00 11.4 131.4 990 55 4 Image Chart
1985 6 26 06 12.2 131.0 990 55 4 Image Chart
1985 6 26 12 13.0 130.6 990 55 4 Image Chart
1985 6 26 18 13.8 130.3 990 55 4 Image Chart
1985 6 27 00 14.8 130.0 990 55 4 Image Chart
1985 6 27 06 15.8 129.8 980 65 5 Image Chart
1985 6 27 12 16.8 129.6 980 75 5 Image Chart
1985 6 27 18 17.8 129.7 970 75 5 Image Chart
1985 6 28 00 18.8 129.8 965 75 5 Image Chart
1985 6 28 06 20.0 130.0 965 75 5 Image Chart
1985 6 28 12 21.5 130.0 960 75 5 Image Chart
1985 6 28 18 22.9 130.1 960 75 5 Image Chart
1985 6 29 00 24.3 130.2 960 75 5 Image Chart
1985 6 29 06 25.8 130.3 960 80 5 Image Chart
1985 6 29 12 26.8 130.5 960 70 5 Image Chart
1985 6 29 18 28.2 131.0 965 65 5 Image Chart
1985 6 30 00 29.7 132.0 965 65 5 Image Chart
1985 6 30 06 31.0 133.3 965 65 5 Image Chart
1985 6 30 12 32.5 135.3 965 65 5 Image Chart
1985 6 30 18 35.0 138.6 968 65 5 Image Chart
1985 7 1 00 38.3 142.0 972 60 4 Image Chart
1985 7 1 06 41.5 144.9 974 0 6 Image Chart
1985 7 1 12 43.0 147.0 974 0 6 Image Chart
1985 7 1 18 44.5 149.0 974 0 6 Image Chart
1985 7 2 00 46.0 151.0 976 0 6 Image Chart
1985 7 2 06 46.5 154.0 976 0 6 Image Chart
1985 7 2 12 47.0 157.0 976 0 6 Image Chart
1985 7 2 18 48.0 160.0 980 0 6 Image Chart
1985 7 3 00 49.0 163.0 980 0 6 Image Chart
1985 7 3 06 50.5 164.5 982 0 6 Image Chart
1985 7 3 12 52.0 165.0 984 0 6 Image Chart
1985 7 3 18 53.0 165.0 986 0 6 Image Chart
1985 7 4 00 53.5 165.0 986 0 6 Image Chart
1985 7 4 06 54.0 165.5 986 0 6 Image Chart
1985 7 4 12 54.1 165.8 988 0 6 Image Chart
1985 7 4 18 54.2 166.1 988 0 6 Image Chart
1985 7 5 00 54.2 166.5 988 0 6 Image Chart
1985 7 5 06 54.5 167.0 988 0 6 Image Chart
1985 7 5 12 55.0 167.0 988 0 6 Image Chart
1985 7 5 18 56.0 167.0 988 0 6 Image Chart
1985 7 6 00 57.0 166.0 986 0 6 Image Chart
1985 7 6 06 57.5 165.0 984 0 6 Image Chart
1985 7 6 12 58.0 164.0 984 0 6 Image Chart
1985 7 6 18 58.5 163.5 988 0 6 Image Chart
1985 7 7 00 58.5 163.0 992 0 6 Image Chart
1985 7 7 06 59.0 162.5 994 0 6 Image Chart
1985 7 7 12 59.0 162.0 998 0 6 Image Chart
1985 7 7 18 60.0 162.0 1000 0 6 Image Chart
Japan Meteorological Agency Best Track Data | Correction Date : 1993-07-19
< Typhoon 198505 1985 Season Typhoon 198507 >

Help